Time;durP1;ratioP1;P1;durP2;ratioP2;P2;SDS_P1;SDS_P2;PMS_P1;PMS_P2;Temp;Humidity;BMP_temperature;BMP_pressure;BME280_temperature;BME280_humidity;BME280_pressure;Samples;Min_cycle;Max_cycle;Signal;HPM_P1;HPM_P2
2023/06/14 00:00:04;;;;;;;1.83;1.40;;;;;;;27.80;40.94;101653.22;5000700;28;20069;-32
2023/06/14 00:02:30;;;;;;;1.40;1.30;;;;;;;27.80;40.74;101656.78;5000711;28;20045;-33
2023/06/14 00:04:59;;;;;;;1.55;1.33;;;;;;;27.78;40.49;101653.44;4997384;28;20057;-32
2023/06/14 00:07:38;;;;;;;1.63;1.35;;;;;;;27.78;40.80;101652.59;4998610;28;20073;-33
2023/06/14 00:10:05;;;;;;;2.40;1.48;;;;;;;27.79;40.66;101657.00;4996638;28;20150;-32
2023/06/14 00:12:32;;;;;;;2.42;1.52;;;;;;;27.78;40.92;101652.59;4996329;28;20050;-32
2023/06/14 00:15:01;;;;;;;2.80;1.30;;;;;;;27.76;40.58;101652.78;4997222;28;20177;-33
2023/06/14 00:17:31;;;;;;;1.77;1.23;;;;;;;27.76;41.11;101655.50;4997341;28;20479;-32
2023/06/14 00:19:59;;;;;;;2.20;1.33;;;;;;;27.76;40.95;101657.38;5000857;28;20053;-32
2023/06/14 00:22:25;;;;;;;1.60;1.30;;;;;;;27.75;41.11;101662.00;4998135;28;20341;-33
2023/06/14 00:24:52;;;;;;;2.25;1.40;;;;;;;27.73;41.06;101652.28;5009997;28;20112;-32
2023/06/14 00:27:21;;;;;;;2.47;1.60;;;;;;;27.72;40.68;101659.63;4996828;28;20138;-32
2023/06/14 00:29:47;;;;;;;1.95;1.50;;;;;;;27.72;40.94;101653.34;4996591;28;20059;-32
2023/06/14 00:32:14;;;;;;;5.57;1.98;;;;;;;27.71;40.35;101654.41;4996313;28;20058;-33
2023/06/14 00:34:41;;;;;;;1.52;1.33;;;;;;;27.72;40.81;101656.06;4995943;28;20050;-33
2023/06/14 00:37:07;;;;;;;1.60;1.33;;;;;;;27.70;40.60;101655.41;4999023;28;20120;-32
2023/06/14 00:39:34;;;;;;;1.50;1.30;;;;;;;27.70;40.92;101655.41;4994280;28;20061;-32
2023/06/14 00:42:01;;;;;;;3.00;1.50;;;;;;;27.68;40.91;101657.50;5000207;28;20362;-32
2023/06/14 00:44:28;;;;;;;2.92;1.70;;;;;;;27.68;40.28;101654.78;5001002;28;20427;-32
2023/06/14 00:46:54;;;;;;;3.20;1.40;;;;;;;27.66;40.62;101659.56;4994104;28;20089;-32
2023/06/14 00:49:21;;;;;;;4.13;2.20;;;;;;;27.65;40.93;101660.63;4996631;28;20204;-32
2023/06/14 00:51:48;;;;;;;1.77;1.58;;;;;;;27.63;40.58;101657.25;5002149;28;20105;-33
2023/06/14 00:54:15;;;;;;;1.70;1.30;;;;;;;27.63;41.06;101649.09;5001742;28;20050;-33
2023/06/14 00:56:43;;;;;;;1.92;1.15;;;;;;;27.61;40.96;101651.16;5002913;28;20054;-33
2023/06/14 00:59:11;;;;;;;1.95;1.40;;;;;;;27.62;40.45;101650.13;5003972;28;20054;-32
2023/06/14 01:01:38;;;;;;;1.77;1.35;;;;;;;27.59;40.44;101648.66;5000572;28;20355;-32
2023/06/14 01:04:05;;;;;;;1.98;1.70;;;;;;;27.59;41.09;101647.81;4999082;28;20046;-32
2023/06/14 01:06:47;;;;;;;1.38;1.27;;;;;;;27.58;40.62;101648.81;5004641;28;20085;-33
2023/06/14 01:09:42;;;;;;;3.67;1.35;;;;;;;27.56;40.81;101657.22;5003916;28;20077;-33
2023/06/14 01:12:20;;;;;;;2.05;1.23;;;;;;;27.56;40.42;101660.75;5002688;28;20108;-32
2023/06/14 01:14:48;;;;;;;2.13;1.25;;;;;;;27.55;40.72;101661.81;5002834;28;20078;-33
2023/06/14 01:17:16;;;;;;;3.13;1.65;;;;;;;27.53;40.37;101658.44;5005072;28;20054;-32
2023/06/14 01:19:44;;;;;;;2.83;1.23;;;;;;;27.54;40.62;101651.13;5003948;28;20174;-32
2023/06/14 01:22:11;;;;;;;2.30;1.60;;;;;;;27.52;40.39;101654.03;5003947;28;20054;-32
2023/06/14 01:24:39;;;;;;;1.50;1.40;;;;;;;27.51;40.68;101646.91;5000567;28;20470;-32
2023/06/14 01:27:07;;;;;;;1.60;1.25;;;;;;;27.50;40.53;101649.84;5003143;28;20393;-32
2023/06/14 01:29:36;;;;;;;2.80;1.58;;;;;;;27.49;40.93;101651.69;5001643;28;20050;-32
2023/06/14 01:32:03;;;;;;;3.83;1.83;;;;;;;27.48;40.90;101652.75;4991238;28;20284;-32
2023/06/14 01:34:31;;;;;;;1.40;1.20;;;;;;;27.47;40.86;101651.06;4996088;28;20042;-32
2023/06/14 01:37:01;;;;;;;1.55;1.42;;;;;;;27.47;40.98;101661.13;5002321;28;20108;-32
2023/06/14 01:39:28;;;;;;;2.33;1.35;;;;;;;27.45;40.75;101655.84;5000606;28;20357;-32
2023/06/14 01:41:55;;;;;;;1.45;1.33;;;;;;;27.44;40.91;101665.06;5000500;28;20088;-32
2023/06/14 01:44:23;;;;;;;3.53;1.55;;;;;;;27.43;40.47;101654.38;5001937;28;20054;-32
2023/06/14 01:46:51;;;;;;;1.85;1.15;;;;;;;27.43;40.55;101659.84;4997545;28;20052;-32
2023/06/14 01:49:17;;;;;;;2.10;1.42;;;;;;;27.42;40.93;101658.13;5003373;28;20129;-32
2023/06/14 01:51:44;;;;;;;1.38;1.20;;;;;;;27.40;40.70;101655.59;4995927;28;20058;-32
2023/06/14 01:54:10;;;;;;;3.33;1.50;;;;;;;27.40;40.77;101658.34;4996639;28;20085;-32
2023/06/14 01:56:37;;;;;;;2.03;1.35;;;;;;;27.39;40.54;101664.81;4992388;28;20402;-32
2023/06/14 01:59:04;;;;;;;2.97;1.75;;;;;;;27.38;40.91;101654.97;4995802;28;20050;-32
2023/06/14 02:01:30;;;;;;;3.13;1.42;;;;;;;27.37;40.89;101652.44;4996430;28;20072;-32
2023/06/14 02:03:57;;;;;;;1.65;1.35;;;;;;;27.36;40.55;101648.03;4997395;28;20053;-32
2023/06/14 02:06:24;;;;;;;2.25;1.70;;;;;;;27.35;40.58;101649.06;4993275;28;20501;-32
2023/06/14 02:08:50;;;;;;;1.92;1.50;;;;;;;27.34;40.80;101647.38;4993583;28;20061;-33
2023/06/14 02:11:17;;;;;;;1.65;1.30;;;;;;;27.33;40.57;101648.41;4992103;28;20121;-32
2023/06/14 02:13:44;;;;;;;1.52;1.23;;;;;;;27.31;40.56;101651.34;4994071;28;20046;-32
2023/06/14 02:16:11;;;;;;;2.45;1.50;;;;;;;27.29;40.85;101648.81;4997574;28;20050;-33
2023/06/14 02:18:38;;;;;;;1.90;1.48;;;;;;;27.29;40.75;101642.53;4995382;28;20502;-32
2023/06/14 02:21:04;;;;;;;3.60;1.77;;;;;;;27.28;40.86;101641.69;4990761;28;20046;-32
2023/06/14 02:23:32;;;;;;;2.05;1.50;;;;;;;27.28;40.95;101643.56;4993602;28;20417;-32
2023/06/14 02:26:00;;;;;;;1.90;1.33;;;;;;;27.27;40.43;101647.34;5001599;28;20105;-33
2023/06/14 02:28:27;;;;;;;1.75;1.33;;;;;;;27.26;40.50;101642.94;5001161;28;20089;-32
2023/06/14 02:30:54;;;;;;;2.40;1.58;;;;;;;27.25;40.88;101652.13;5003216;28;20097;-32
2023/06/14 02:33:21;;;;;;;2.55;1.48;;;;;;;27.23;41.14;101654.22;5001688;28;20080;-32
2023/06/14 02:35:48;;;;;;;1.20;1.02;;;;;;;27.23;41.01;101651.47;5003304;28;20058;-35
2023/06/14 02:38:15;;;;;;;3.15;1.50;;;;;;;27.22;40.98;101658.81;5003135;28;20073;-32
2023/06/14 02:40:42;;;;;;;2.72;1.20;;;;;;;27.20;40.87;101654.59;5002213;28;20214;-32
2023/06/14 02:43:09;;;;;;;2.13;1.20;;;;;;;27.19;40.99;101656.47;5009757;28;20055;-32
2023/06/14 02:45:35;;;;;;;2.25;1.23;;;;;;;27.18;40.90;101651.25;5003586;28;20422;-33
2023/06/14 02:48:02;;;;;;;1.70;1.30;;;;;;;27.17;41.04;101646.81;5003947;28;20160;-32
2023/06/14 02:50:30;;;;;;;2.20;1.60;;;;;;;27.16;40.56;101659.56;5003772;28;20054;-32
2023/06/14 02:52:56;;;;;;;2.10;1.10;;;;;;;27.16;40.63;101656.03;5005208;28;20120;-32
2023/06/14 02:55:23;;;;;;;1.88;1.42;;;;;;;27.15;41.01;101655.19;5001884;28;20137;-32
2023/06/14 02:57:50;;;;;;;2.63;1.23;;;;;;;27.14;40.88;101655.38;5003243;28;20183;-32
2023/06/14 03:00:17;;;;;;;2.33;1.40;;;;;;;27.13;41.00;101662.69;5005206;28;20088;-32
2023/06/14 03:02:44;;;;;;;1.80;1.35;;;;;;;27.12;41.02;101662.88;5003242;28;20539;-32
2023/06/14 03:05:12;;;;;;;1.92;1.25;;;;;;;27.12;41.02;101668.31;5000697;28;20121;-33
2023/06/14 03:07:40;;;;;;;2.17;1.25;;;;;;;27.11;40.86;101669.38;5001497;28;20465;-33
2023/06/14 03:10:09;;;;;;;2.13;1.70;;;;;;;27.09;40.89;101672.25;5001216;28;20085;-32
2023/06/14 03:12:36;;;;;;;2.00;1.27;;;;;;;27.08;40.77;101670.56;5000644;28;20047;-32
2023/06/14 03:15:03;;;;;;;1.50;1.23;;;;;;;27.07;40.93;101679.78;5002806;28;20085;-32
2023/06/14 03:17:33;;;;;;;2.33;1.48;;;;;;;27.06;40.98;101678.94;5001042;28;20137;-32
2023/06/14 03:20:00;;;;;;;1.38;1.20;;;;;;;27.06;40.58;101684.38;5001151;28;20425;-32
2023/06/14 03:22:28;;;;;;;2.00;1.30;;;;;;;27.06;40.91;101691.69;5000400;28;20050;-33
2023/06/14 03:24:55;;;;;;;2.30;1.58;;;;;;;27.05;40.84;101690.00;5001757;28;20306;-32
2023/06/14 03:27:21;;;;;;;2.47;1.02;;;;;;;27.04;41.20;101686.44;4997086;28;20100;-32
2023/06/14 03:29:48;;;;;;;2.30;1.40;;;;;;;27.03;40.91;101692.91;5000898;28;20054;-32
2023/06/14 03:32:14;;;;;;;1.38;1.00;;;;;;;27.02;40.80;101684.97;4997939;28;20065;-32
2023/06/14 03:34:41;;;;;;;4.10;1.70;;;;;;;27.02;41.19;101693.97;5002018;28;20050;-32
2023/06/14 03:37:08;;;;;;;1.80;1.30;;;;;;;27.02;41.09;101693.97;4998765;28;20077;-32
2023/06/14 03:39:35;;;;;;;1.48;1.27;;;;;;;27.00;40.96;101696.03;4996464;28;20346;-32
2023/06/14 03:42:02;;;;;;;1.73;1.02;;;;;;;27.00;41.12;101701.47;5004802;28;20046;-32
2023/06/14 03:44:29;;;;;;;1.40;1.10;;;;;;;26.99;41.25;101705.22;5011478;28;20081;-32
2023/06/14 03:46:55;;;;;;;1.98;1.35;;;;;;;26.99;41.00;101701.66;5011380;28;20054;-32
2023/06/14 03:49:22;;;;;;;1.30;1.13;;;;;;;26.99;41.13;101710.66;5008660;28;20080;-33
2023/06/14 03:51:50;;;;;;;1.70;1.35;;;;;;;26.99;41.24;101715.28;4996800;28;20053;-32
2023/06/14 03:54:18;;;;;;;2.78;1.55;;;;;;;26.98;40.99;101710.88;5001087;28;20084;-32
2023/06/14 03:57:05;;;;;;;1.30;0.98;;;;;;;26.97;40.78;101718.16;4995081;28;20058;-32
2023/06/14 03:59:32;;;;;;;1.42;1.30;;;;;;;26.97;40.91;101718.16;4996483;28;20050;-33
2023/06/14 04:01:59;;;;;;;1.60;1.17;;;;;;;26.96;41.02;101716.47;5001037;28;20051;-32
2023/06/14 04:04:29;;;;;;;2.17;1.40;;;;;;;26.95;40.90;101714.81;5000887;28;20058;-32
2023/06/14 04:07:00;;;;;;;2.00;1.00;;;;;;;26.94;41.30;101713.13;4995829;28;20615;-33
2023/06/14 04:09:27;;;;;;;1.63;1.27;;;;;;;26.94;40.89;101715.84;5000456;28;20126;-32
2023/06/14 04:11:53;;;;;;;1.88;1.38;;;;;;;26.93;40.93;101716.84;4992484;28;20101;-33
2023/06/14 04:14:20;;;;;;;2.70;1.55;;;;;;;26.93;40.95;101724.19;4998264;28;20046;-33
2023/06/14 04:16:48;;;;;;;4.20;1.38;;;;;;;26.93;41.12;101724.19;4998066;28;20061;-32
2023/06/14 04:19:15;;;;;;;1.35;1.05;;;;;;;26.92;40.89;101734.22;5001443;28;20070;-32
2023/06/14 04:21:42;;;;;;;1.65;1.10;;;;;;;26.92;41.22;101736.09;4999727;28;20420;-32
2023/06/14 04:24:13;;;;;;;2.05;1.17;;;;;;;26.92;41.13;101733.38;4998618;28;20165;-33
2023/06/14 04:26:44;;;;;;;1.58;1.10;;;;;;;26.91;41.11;101735.28;4999899;28;20046;-32
2023/06/14 04:29:16;;;;;;;1.40;1.27;;;;;;;26.92;40.99;101733.38;4999709;28;20053;-32
2023/06/14 04:31:44;;;;;;;2.20;1.45;;;;;;;26.91;41.15;101734.44;4998136;28;20061;-33
2023/06/14 04:34:16;;;;;;;2.20;1.20;;;;;;;26.92;40.97;101744.28;4998755;28;20053;-32
2023/06/14 04:36:49;;;;;;;1.50;1.17;;;;;;;26.91;41.39;101743.44;5000724;28;20113;-32
2023/06/14 04:39:19;;;;;;;1.90;1.27;;;;;;;26.92;41.00;101741.56;4997600;28;20117;-32
2023/06/14 04:41:46;;;;;;;2.53;1.45;;;;;;;26.92;41.14;101733.38;4998808;28;20405;-33
2023/06/14 04:44:13;;;;;;;1.40;1.00;;;;;;;26.91;40.98;101738.00;4997329;28;20068;-32
2023/06/14 04:46:46;;;;;;;1.02;0.93;;;;;;;26.94;40.99;101737.63;4999525;28;20054;-32
2023/06/14 04:49:15;;;;;;;1.70;1.35;;;;;;;26.94;41.03;101734.06;4995707;28;20061;-32
2023/06/14 04:51:42;;;;;;;2.42;1.17;;;;;;;26.96;40.94;101745.56;4998685;28;20082;-32
2023/06/14 04:54:15;;;;;;;1.75;1.27;;;;;;;26.95;41.07;101744.72;5008129;28;20196;-32
2023/06/14 04:56:42;;;;;;;1.33;1.13;;;;;;;26.96;41.00;101751.84;4995303;28;20057;-32
2023/06/14 04:59:11;;;;;;;1.42;1.20;;;;;;;26.98;40.94;101746.25;4991872;28;20141;-32
2023/06/14 05:01:38;;;;;;;1.77;1.38;;;;;;;26.99;40.65;101743.31;4999971;28;20093;-32
2023/06/14 05:04:04;;;;;;;2.33;1.20;;;;;;;27.01;40.84;101740.41;4994908;28;20077;-32
2023/06/14 05:06:31;;;;;;;2.42;1.30;;;;;;;27.02;40.85;101748.38;4998111;28;20133;-32
2023/06/14 05:08:58;;;;;;;1.63;1.30;;;;;;;27.04;40.96;101751.75;5005864;28;20127;-32
2023/06/14 05:11:26;;;;;;;1.77;1.10;;;;;;;27.05;40.92;101749.84;5004435;28;20104;-33
2023/06/14 05:13:53;;;;;;;2.15;1.05;;;;;;;27.06;41.01;101749.69;5003402;28;20042;-32
2023/06/14 05:16:22;;;;;;;1.27;1.10;;;;;;;27.08;41.05;101749.47;5006371;28;20100;-32
2023/06/14 05:18:50;;;;;;;1.85;1.20;;;;;;;27.11;40.48;101761.91;5005623;28;20060;-32
2023/06/14 05:21:18;;;;;;;2.08;1.20;;;;;;;27.13;40.76;101755.22;5006870;28;20374;-33
2023/06/14 05:23:45;;;;;;;1.88;1.08;;;;;;;27.14;41.02;101753.38;5006859;28;20545;-32
2023/06/14 05:26:12;;;;;;;1.65;1.17;;;;;;;27.16;40.90;101751.28;5007460;28;20058;-32
2023/06/14 05:28:38;;;;;;;1.30;1.20;;;;;;;27.18;40.42;101757.38;5005716;28;20054;-33
2023/06/14 05:31:05;;;;;;;2.28;1.33;;;;;;;27.18;40.89;101750.06;5004037;28;20140;-32
2023/06/14 05:33:31;;;;;;;1.75;1.17;;;;;;;27.19;40.86;101751.75;5005375;28;20082;-32
2023/06/14 05:35:58;;;;;;;1.60;1.30;;;;;;;27.21;40.63;101754.25;4999486;28;20050;-33
2023/06/14 05:38:26;;;;;;;2.60;1.23;;;;;;;27.23;40.35;101752.19;5003968;28;20097;-32
2023/06/14 05:40:53;;;;;;;2.20;1.20;;;;;;;27.25;40.46;101755.56;5002422;28;20323;-32
2023/06/14 05:43:20;;;;;;;3.78;1.42;;;;;;;27.26;40.48;101758.09;5000701;28;20058;-32
2023/06/14 05:45:47;;;;;;;1.92;1.10;;;;;;;27.28;40.13;101755.19;5003719;28;20053;-33
2023/06/14 05:48:13;;;;;;;2.17;1.45;;;;;;;27.30;40.40;101761.28;5000665;28;20046;-32
2023/06/14 05:50:40;;;;;;;3.33;1.30;;;;;;;27.32;40.33;101767.38;4998655;28;20082;-32
2023/06/14 05:53:06;;;;;;;0.85;0.80;;;;;;;27.33;40.25;101766.31;4996712;28;20099;-33
2023/06/14 05:55:33;;;;;;;1.10;0.90;;;;;;;27.35;40.21;101768.88;4993055;28;20050;-33
2023/06/14 05:58:00;;;;;;;1.23;1.10;;;;;;;27.36;40.31;101768.66;4996978;28;20093;-32
2023/06/14 06:00:27;;;;;;;1.40;1.30;;;;;;;27.38;40.25;101777.50;4996366;28;20064;-33
2023/06/14 06:02:57;;;;;;;1.35;1.10;;;;;;;27.38;40.00;101772.06;4998380;28;20057;-33
2023/06/14 06:05:23;;;;;;;2.63;1.15;;;;;;;27.39;39.86;101773.72;4999629;28;20133;-32
2023/06/14 06:07:51;;;;;;;2.03;1.17;;;;;;;27.38;40.31;101772.06;4997804;28;20454;-32
2023/06/14 06:10:17;;;;;;;1.30;1.10;;;;;;;27.37;40.16;101773.06;5010883;28;20108;-32
2023/06/14 06:12:44;;;;;;;1.73;1.20;;;;;;;27.37;39.91;101774.94;4998167;28;20054;-33
2023/06/14 06:15:14;;;;;;;1.00;0.90;;;;;;;27.36;40.30;101774.09;4998410;28;20137;-33
2023/06/14 06:17:41;;;;;;;2.00;1.20;;;;;;;27.35;40.23;101782.47;5006422;28;20046;-35
2023/06/14 06:20:27;;;;;;;1.95;1.42;;;;;;;27.34;40.33;101781.66;4997702;28;20050;-33
2023/06/14 06:22:55;;;;;;;1.27;0.90;;;;;;;27.34;40.05;101780.78;5000995;28;20046;-33
2023/06/14 06:25:22;;;;;;;1.92;1.20;;;;;;;27.34;40.20;101780.78;5001290;28;20046;-32
2023/06/14 06:27:48;;;;;;;1.80;1.30;;;;;;;27.33;40.39;101779.09;4994588;28;20132;-33
2023/06/14 06:30:15;;;;;;;1.38;1.27;;;;;;;27.33;40.06;101785.38;4998585;28;20442;-32
2023/06/14 06:32:42;;;;;;;3.25;1.40;;;;;;;27.31;40.02;101788.31;5005012;28;20381;-33
2023/06/14 06:35:10;;;;;;;1.33;1.20;;;;;;;27.31;40.38;101785.59;5000142;28;20053;-33
2023/06/14 06:37:37;;;;;;;2.05;1.25;;;;;;;27.33;40.09;101784.53;5004614;28;20050;-32
2023/06/14 06:40:05;;;;;;;1.45;1.13;;;;;;;27.31;40.21;101782.03;5002424;28;20081;-34
2023/06/14 06:42:32;;;;;;;1.60;1.45;;;;;;;27.31;39.94;101785.59;5003968;28;20054;-32
2023/06/14 06:44:59;;;;;;;1.23;1.00;;;;;;;27.32;40.15;101789.16;5003192;28;20046;-32
2023/06/14 06:47:26;;;;;;;1.10;1.00;;;;;;;27.31;39.96;101796.47;5004720;28;20092;-32
2023/06/14 06:49:52;;;;;;;1.33;1.20;;;;;;;27.31;40.30;101799.19;5004825;28;20386;-32
2023/06/14 06:52:19;;;;;;;1.95;1.20;;;;;;;27.31;39.87;101796.47;5004222;28;20081;-32
2023/06/14 06:54:46;;;;;;;2.78;1.17;;;;;;;27.31;40.19;101799.19;5002587;28;20062;-32
2023/06/14 06:57:13;;;;;;;1.50;1.08;;;;;;;27.30;40.08;101800.25;5005818;28;20057;-34
2023/06/14 06:59:40;;;;;;;2.05;1.23;;;;;;;27.30;39.88;101802.97;5006867;28;20358;-32
2023/06/14 07:02:07;;;;;;;2.50;1.27;;;;;;;27.31;39.95;101803.81;5005633;28;20050;-32
2023/06/14 07:04:33;;;;;;;1.98;1.40;;;;;;;27.31;39.87;101806.53;5003821;28;20054;-32
2023/06/14 07:07:00;;;;;;;1.38;1.27;;;;;;;27.30;39.84;101808.41;5005093;28;20078;-33
2023/06/14 07:09:27;;;;;;;1.85;1.33;;;;;;;27.30;40.06;101813.00;5004760;28;20157;-32
2023/06/14 07:11:53;;;;;;;2.38;1.08;;;;;;;27.30;40.19;101818.47;5003735;28;20046;-32
2023/06/14 07:14:22;;;;;;;2.22;1.08;;;;;;;27.31;40.01;101817.41;5005679;28;20078;-32
2023/06/14 07:16:49;;;;;;;1.25;1.15;;;;;;;27.30;40.00;101819.28;5003490;28;20054;-32
2023/06/14 07:19:17;;;;;;;2.33;1.15;;;;;;;27.30;39.89;101818.47;4999786;28;20093;-32
2023/06/14 07:21:43;;;;;;;3.25;1.13;;;;;;;27.31;40.16;101820.97;5002016;28;20106;-33
2023/06/14 07:24:10;;;;;;;1.73;1.15;;;;;;;27.31;39.81;101823.69;5002735;28;20057;-32
2023/06/14 07:26:37;;;;;;;1.45;1.30;;;;;;;27.30;39.56;101832.91;5003273;28;20054;-35
2023/06/14 07:29:03;;;;;;;1.83;1.20;;;;;;;27.31;39.81;101826.41;5000712;28;20400;-33
2023/06/14 07:31:30;;;;;;;2.00;1.10;;;;;;;27.32;39.80;101832.72;5001698;28;20050;-32
2023/06/14 07:33:56;;;;;;;1.38;0.98;;;;;;;27.31;39.81;101831.03;4998103;28;20128;-33
2023/06/14 07:36:23;;;;;;;2.20;1.20;;;;;;;27.33;40.02;101839.00;5002568;28;20246;-33
2023/06/14 07:38:50;;;;;;;2.38;1.38;;;;;;;27.33;39.77;101833.53;4998419;28;20049;-32
2023/06/14 07:41:17;;;;;;;1.48;1.17;;;;;;;27.31;39.48;101837.31;4999250;28;20222;-32
2023/06/14 07:43:43;;;;;;;1.33;1.10;;;;;;;27.33;39.76;101834.38;5000220;28;20061;-32
2023/06/14 07:46:10;;;;;;;1.33;1.15;;;;;;;27.31;40.06;101845.47;4998063;28;20084;-32
2023/06/14 07:48:37;;;;;;;1.40;1.20;;;;;;;27.33;39.88;101842.56;5000536;28;20101;-32
2023/06/14 07:51:04;;;;;;;2.15;1.08;;;;;;;27.34;39.56;101841.53;5003406;28;20384;-32
2023/06/14 07:53:31;;;;;;;1.60;1.25;;;;;;;27.34;39.63;101846.97;4996255;28;20638;-32
2023/06/14 07:55:58;;;;;;;2.25;1.45;;;;;;;27.34;39.94;101846.97;4993248;28;20057;-32
2023/06/14 07:58:24;;;;;;;1.13;0.93;;;;;;;27.34;39.53;101846.97;5000461;28;20050;-32
2023/06/14 08:00:51;;;;;;;3.70;1.60;;;;;;;27.36;39.55;101857.66;5006877;28;20057;-32
2023/06/14 08:03:18;;;;;;;1.35;1.17;;;;;;;27.36;39.43;101855.78;5000261;28;20435;-32
2023/06/14 08:05:45;;;;;;;2.10;1.25;;;;;;;27.37;39.50;101852.03;4995100;28;20145;-32
2023/06/14 08:08:12;;;;;;;4.30;1.20;;;;;;;27.37;39.84;101854.75;5002207;28;20046;-33
2023/06/14 08:10:39;;;;;;;1.70;1.27;;;;;;;27.38;39.21;101853.72;4997820;28;20045;-34
2023/06/14 08:13:05;;;;;;;3.38;1.30;;;;;;;27.39;39.69;101852.69;4997113;28;20133;-33
2023/06/14 08:15:33;;;;;;;2.65;1.25;;;;;;;27.39;39.47;101852.69;4998009;28;20057;-33
2023/06/14 08:18:01;;;;;;;1.33;0.95;;;;;;;27.41;39.61;101858.78;4999159;28;20084;-33
2023/06/14 08:20:27;;;;;;;3.03;1.52;;;;;;;27.41;39.34;101856.03;4992093;28;20421;-33
2023/06/14 08:22:56;;;;;;;1.45;1.20;;;;;;;27.41;39.20;101858.78;4999145;28;20050;-33
2023/06/14 08:25:23;;;;;;;1.42;1.20;;;;;;;27.42;39.46;101844.16;4999800;28;20074;-34
2023/06/14 08:27:50;;;;;;;2.60;1.25;;;;;;;27.42;39.11;101844.16;4999528;28;20054;-33
2023/06/14 08:30:17;;;;;;;1.65;1.23;;;;;;;27.44;39.57;101852.94;4998962;28;20116;-33
2023/06/14 08:32:44;;;;;;;1.83;1.20;;;;;;;27.45;39.03;101842.91;5000314;28;20050;-33
2023/06/14 08:35:12;;;;;;;1.92;1.40;;;;;;;27.45;39.27;101851.91;4998101;28;20065;-33
2023/06/14 08:37:41;;;;;;;3.13;1.27;;;;;;;27.46;39.33;101847.34;4999151;28;20069;-33
2023/06/14 08:40:29;;;;;;;1.42;1.15;;;;;;;27.45;38.75;101851.91;5000523;28;20054;-34
2023/06/14 08:42:56;;;;;;;8.93;1.80;;;;;;;27.47;39.35;101849.00;5003048;28;20108;-33
2023/06/14 08:45:25;;;;;;;1.95;1.20;;;;;;;27.47;39.42;101855.28;5000150;28;20093;-33
2023/06/14 08:47:57;;;;;;;1.92;1.30;;;;;;;27.48;39.19;101854.25;4998879;28;20050;-33
2023/06/14 08:50:31;;;;;;;1.15;1.00;;;;;;;27.49;38.87;101846.94;5000231;28;20100;-33
2023/06/14 08:53:02;;;;;;;1.75;1.17;;;;;;;27.49;39.35;101847.75;5001361;28;20377;-32
2023/06/14 08:55:30;;;;;;;3.92;1.40;;;;;;;27.51;39.29;101850.31;4998892;28;20050;-33
2023/06/14 08:58:03;;;;;;;1.60;1.43;;;;;;;27.53;39.07;101864.56;4999673;28;20050;-33
2023/06/14 09:00:30;;;;;;;1.73;1.17;;;;;;;27.53;38.82;101857.22;5002470;28;20046;-33
2023/06/14 09:02:58;;;;;;;2.67;1.20;;;;;;;27.52;39.20;101850.09;5000553;28;20600;-33
2023/06/14 09:05:26;;;;;;;2.42;1.65;;;;;;;27.54;38.80;101853.50;4995472;28;20046;-34
2023/06/14 09:07:56;;;;;;;2.05;1.15;;;;;;;27.55;38.90;101849.72;5000120;28;20129;-33
2023/06/14 09:10:25;;;;;;;2.35;1.63;;;;;;;27.57;38.91;101852.25;4994615;28;20077;-33
2023/06/14 09:12:53;;;;;;;2.25;1.20;;;;;;;27.59;39.06;101854.78;4993701;28;20084;-32
2023/06/14 09:15:20;;;;;;;2.63;1.15;;;;;;;27.60;38.92;101851.03;4992396;28;20046;-33
2023/06/14 09:17:47;;;;;;;2.45;1.08;;;;;;;27.62;38.80;101852.53;5001729;28;20050;-32
2023/06/14 09:20:18;;;;;;;1.25;1.15;;;;;;;27.65;39.40;101856.72;4996468;28;20123;-32
2023/06/14 09:22:46;;;;;;;6.47;1.60;;;;;;;27.66;39.25;101862.00;4996510;28;20140;-33
2023/06/14 09:25:15;;;;;;;1.48;1.05;;;;;;;27.70;38.87;101862.44;5003747;28;20058;-33
2023/06/14 09:27:59;;;;;;;1.38;1.20;;;;;;;27.73;38.82;101856.59;5000031;28;20054;-33
2023/06/14 09:30:25;;;;;;;1.52;1.27;;;;;;;27.76;39.30;101862.56;5008194;28;20354;-33
2023/06/14 09:32:53;;;;;;;1.90;1.13;;;;;;;27.79;38.80;101856.72;5001307;28;20067;-32
2023/06/14 09:35:20;;;;;;;2.38;1.10;;;;;;;27.83;39.32;101850.88;5000513;28;20093;-33
2023/06/14 09:37:48;;;;;;;1.60;1.30;;;;;;;27.87;39.25;101857.63;5005236;28;20137;-33
2023/06/14 09:40:20;;;;;;;1.70;1.10;;;;;;;27.90;38.98;101862.66;5004239;28;20045;-33
2023/06/14 09:42:47;;;;;;;1.48;1.20;;;;;;;27.93;39.03;101857.69;4997325;28;20050;-33
2023/06/14 09:45:19;;;;;;;2.00;1.02;;;;;;;27.97;39.15;101867.16;5005617;28;20346;-33
2023/06/14 09:47:47;;;;;;;1.55;1.15;;;;;;;28.00;39.39;101857.75;5005180;28;20113;-34
2023/06/14 09:50:32;;;;;;;1.85;1.00;;;;;;;28.05;38.81;101863.44;4995776;28;20046;-33
2023/06/14 09:53:05;;;;;;;2.00;1.52;;;;;;;28.07;38.35;101869.56;4996092;28;20129;-32
2023/06/14 09:55:34;;;;;;;;;;;;;;;28.10;38.49;101871.03;4998310;28;20050;-33
2023/06/14 09:58:06;;;;;;;1.98;1.40;;;;;;;28.16;38.62;101870.25;4993066;28;19996;-32
2023/06/14 10:00:36;;;;;;;1.50;1.10;;;;;;;28.18;38.75;101868.16;4998328;28;20049;-33
2023/06/14 10:03:20;;;;;;;1.80;1.30;;;;;;;28.20;38.76;101866.94;4999257;28;20337;-33
2023/06/14 10:05:50;;;;;;;1.35;1.10;;;;;;;28.23;39.17;101857.53;4996060;28;20442;-34
2023/06/14 10:08:19;;;;;;;1.90;1.40;;;;;;;28.25;38.50;101856.28;4998860;28;20045;-33
2023/06/14 10:10:46;;;;;;;2.78;1.20;;;;;;;28.27;38.50;101861.56;4995593;28;20497;-33
2023/06/14 10:13:14;;;;;;;1.25;1.08;;;;;;;28.30;38.67;101861.13;4995287;28;20060;-33
2023/06/14 10:15:52;;;;;;;1.30;0.90;;;;;;;28.32;38.55;101867.25;5005582;28;20136;-34
2023/06/14 10:18:30;;;;;;;2.08;1.20;;;;;;;28.34;38.54;101854.25;4996435;28;20046;-32
2023/06/14 10:21:00;;;;;;;1.52;0.90;;;;;;;28.38;38.16;101868.38;4996198;28;20062;-33
2023/06/14 10:23:29;;;;;;;0.82;0.80;;;;;;;28.40;38.35;101860.84;5000187;28;20073;-34
2023/06/14 10:26:00;;;;;;;2.40;1.15;;;;;;;28.41;38.46;101854.34;5005648;28;20057;-34
2023/06/14 10:28:26;;;;;;;1.60;0.90;;;;;;;28.43;38.85;101850.38;4995233;28;20392;-33
2023/06/14 10:31:07;;;;;;;2.10;1.10;;;;;;;28.45;38.32;101861.91;4994680;28;20060;-33
2023/06/14 10:33:36;;;;;;;2.15;1.40;;;;;;;28.48;38.13;101863.41;4995023;28;20054;-33
2023/06/14 10:36:28;;;;;;;1.50;1.20;;;;;;;28.49;38.67;101854.19;4992910;28;20124;-34
2023/06/14 10:39:10;;;;;;;2.42;1.20;;;;;;;28.51;38.40;101854.84;4994435;28;20054;-33
2023/06/14 10:41:38;;;;;;;2.80;1.30;;;;;;;28.53;38.04;101853.59;4993440;28;20198;-33
2023/06/14 10:44:14;;;;;;;1.60;0.98;;;;;;;28.56;38.08;101859.69;4991773;28;20098;-33
2023/06/14 10:46:46;;;;;;;1.60;1.17;;;;;;;28.58;38.77;101854.88;4991837;28;20061;-33
2023/06/14 10:49:20;;;;;;;1.60;1.15;;;;;;;28.60;38.75;101856.38;5000160;28;20161;-33
2023/06/14 10:51:51;;;;;;;1.83;1.20;;;;;;;28.61;38.45;101860.78;5002875;28;20050;-33
2023/06/14 10:54:22;;;;;;;2.13;0.95;;;;;;;28.63;38.27;101863.31;5004705;28;20132;-33
2023/06/14 10:56:50;;;;;;;1.15;0.90;;;;;;;28.65;38.65;101853.88;5005165;28;20053;-33
2023/06/14 10:59:18;;;;;;;1.42;1.13;;;;;;;28.67;37.79;101864.59;5004916;28;20073;-33
2023/06/14 11:02:04;;;;;;;1.95;0.90;;;;;;;28.67;37.92;101856.44;5007423;28;20063;-33
2023/06/14 11:04:47;;;;;;;1.88;1.13;;;;;;;28.69;38.62;101865.22;5006571;28;20054;-33
2023/06/14 11:07:41;;;;;;;1.45;1.00;;;;;;;28.71;37.75;101855.81;5007561;28;20521;-33
2023/06/14 11:10:39;;;;;;;1.30;1.20;;;;;;;28.73;38.34;101855.59;5007155;28;20054;-33
2023/06/14 11:13:07;;;;;;;1.52;1.10;;;;;;;28.76;38.46;101858.78;5007897;28;20054;-33
2023/06/14 11:15:38;;;;;;;1.00;0.90;;;;;;;28.78;38.60;101850.38;4993336;28;20058;-34
2023/06/14 11:18:06;;;;;;;3.05;0.90;;;;;;;28.79;38.45;101852.09;4998645;28;20050;-33
2023/06/14 11:20:38;;;;;;;1.58;1.00;;;;;;;28.82;38.24;101851.66;5002292;28;20046;-33
2023/06/14 11:23:05;;;;;;;2.70;1.23;;;;;;;28.82;38.03;101857.13;5004897;28;20060;-33
2023/06/14 11:25:32;;;;;;;1.48;1.05;;;;;;;28.83;38.34;101847.91;5006808;28;20062;-33
2023/06/14 11:27:59;;;;;;;1.83;1.27;;;;;;;28.85;38.42;101850.44;5004878;28;20046;-34
2023/06/14 11:30:25;;;;;;;3.03;1.50;;;;;;;28.86;37.91;101846.66;5003609;28;20093;-35